Time;durP1;ratioP1;P1;durP2;ratioP2;P2;SDS_P1;SDS_P2;PMS_P1;PMS_P2;Temp;Humidity;BMP_temperature;BMP_pressure;BME280_temperature;BME280_humidity;BME280_pressure;Samples;Min_cycle;Max_cycle;Signal;HPM_P1;HPM_P2
2021/06/19 00:01:35;;;;;;;3.85;2.47;;;23.50;99.90;;;;;;5044830;28;20034;-74
2021/06/19 00:04:00;;;;;;;5.32;2.13;;;23.40;99.90;;;;;;5043867;28;20501;-74
2021/06/19 00:06:26;;;;;;;3.30;1.88;;;23.40;99.90;;;;;;5060947;28;20026;-74
2021/06/19 00:08:52;;;;;;;7.63;2.85;;;23.30;99.90;;;;;;5057955;28;20079;-75
2021/06/19 00:11:18;;;;;;;3.25;1.98;;;23.30;99.90;;;;;;5065536;28;20029;-76
2021/06/19 00:13:44;;;;;;;4.85;1.95;;;23.30;99.90;;;;;;5066137;28;20025;-75
2021/06/19 00:16:10;;;;;;;4.00;1.83;;;23.30;99.90;;;;;;5065709;28;20032;-73
2021/06/19 00:18:35;;;;;;;1.48;1.35;;;23.20;99.90;;;;;;5063298;28;20097;-75
2021/06/19 00:21:01;;;;;;;4.47;1.67;;;23.20;99.90;;;;;;5065234;28;20037;-75
2021/06/19 00:23:27;;;;;;;3.72;1.88;;;23.20;99.90;;;;;;5065242;28;20025;-73
2021/06/19 00:25:52;;;;;;;2.05;1.33;;;23.10;99.90;;;;;;5063690;28;20031;-74
2021/06/19 00:28:18;;;;;;;4.63;1.92;;;23.10;99.90;;;;;;5065517;28;20033;-75
2021/06/19 00:30:44;;;;;;;6.85;1.70;;;23.00;99.90;;;;;;5065292;28;20032;-75
2021/06/19 00:33:10;;;;;;;3.78;1.40;;;23.00;99.90;;;;;;5065039;28;20551;-74
2021/06/19 00:35:35;;;;;;;4.68;1.65;;;23.00;99.90;;;;;;5065234;28;20021;-73
2021/06/19 00:38:01;;;;;;;4.15;1.85;;;22.90;99.90;;;;;;5064381;28;20039;-74
2021/06/19 00:40:27;;;;;;;2.72;1.83;;;22.90;99.90;;;;;;5064970;28;20025;-74
2021/06/19 00:42:55;;;;;;;3.42;1.48;;;22.80;99.90;;;;;;5065033;28;20493;-75
2021/06/19 00:45:23;;;;;;;4.95;1.65;;;22.80;99.90;;;;;;5064167;28;20104;-74
2021/06/19 00:47:48;;;;;;;1.95;1.42;;;22.70;99.90;;;;;;5063266;28;20377;-73
2021/06/19 00:50:14;;;;;;;3.35;2.08;;;22.80;99.90;;;;;;5043558;28;20098;-74
2021/06/19 00:52:40;;;;;;;2.05;1.38;;;22.80;99.90;;;;;;5025135;28;20054;-74
2021/06/19 00:55:06;;;;;;;2.80;1.73;;;22.70;99.90;;;;;;5023509;28;20049;-74
2021/06/19 00:57:33;;;;;;;4.35;1.92;;;22.70;99.90;;;;;;5024612;28;20045;-75
2021/06/19 00:59:59;;;;;;;1.90;1.50;;;22.70;99.90;;;;;;5024208;28;20086;-74
2021/06/19 01:02:26;;;;;;;4.25;1.83;;;22.60;99.90;;;;;;5024555;28;20042;-73
2021/06/19 01:04:52;;;;;;;1.70;1.45;;;22.60;99.90;;;;;;5023432;28;20096;-76
2021/06/19 01:07:18;;;;;;;15.30;1.88;;;22.60;99.90;;;;;;5024513;28;20033;-74
2021/06/19 01:09:44;;;;;;;2.60;1.17;;;22.60;99.90;;;;;;5023265;28;20018;-75
2021/06/19 01:12:10;;;;;;;5.57;1.92;;;22.60;99.90;;;;;;5025225;28;20056;-73
2021/06/19 01:14:35;;;;;;;12.43;2.13;;;22.50;99.90;;;;;;5039679;28;20021;-75
2021/06/19 01:17:02;;;;;;;1.20;1.10;;;22.40;99.90;;;;;;5024321;28;20041;-75
2021/06/19 01:19:27;;;;;;;4.60;1.88;;;22.40;99.90;;;;;;5024529;28;20026;-74
2021/06/19 01:21:54;;;;;;;3.42;1.63;;;22.40;99.90;;;;;;5024215;28;20088;-74
2021/06/19 01:24:22;;;;;;;3.55;1.02;;;22.40;99.90;;;;;;5040090;28;20120;-76
2021/06/19 01:26:49;;;;;;;7.35;1.60;;;22.30;99.90;;;;;;5024080;28;20022;-75
2021/06/19 01:29:14;;;;;;;3.30;1.30;;;22.30;99.90;;;;;;5024723;28;20034;-75
2021/06/19 01:31:40;;;;;;;1.85;1.30;;;22.40;99.90;;;;;;5024364;28;20051;-73
2021/06/19 01:34:06;;;;;;;5.38;1.77;;;22.40;99.90;;;;;;5024444;28;20026;-73
2021/06/19 01:36:32;;;;;;;3.08;1.90;;;22.30;99.90;;;;;;5022398;28;20026;-75
2021/06/19 01:38:58;;;;;;;7.93;1.92;;;22.20;99.90;;;;;;5024410;28;20569;-75
2021/06/19 01:41:25;;;;;;;4.68;1.63;;;22.20;99.90;;;;;;5024067;28;20048;-73
2021/06/19 01:44:02;;;;;;;4.30;1.95;;;22.20;99.90;;;;;;5024535;28;20046;-74
2021/06/19 01:46:28;;;;;;;2.70;1.55;;;22.20;99.90;;;;;;5023961;28;20041;-73
2021/06/19 01:48:53;;;;;;;3.35;1.70;;;22.10;99.90;;;;;;5023948;28;20123;-74
2021/06/19 01:51:19;;;;;;;8.52;2.15;;;22.10;99.90;;;;;;5023853;28;20097;-75
2021/06/19 01:53:49;;;;;;;2.83;1.80;;;22.10;99.90;;;;;;5039680;28;20034;-75
2021/06/19 01:56:15;;;;;;;2.83;1.27;;;22.10;99.90;;;;;;5024334;28;20026;-75
2021/06/19 01:58:41;;;;;;;16.60;2.72;;;22.20;99.90;;;;;;5024483;28;20030;-72
2021/06/19 02:01:10;;;;;;;3.08;1.70;;;22.10;99.90;;;;;;5024231;28;20053;-73
2021/06/19 02:03:36;;;;;;;5.10;2.05;;;22.10;99.90;;;;;;5039732;28;20481;-72
2021/06/19 02:06:02;;;;;;;2.80;1.73;;;22.10;99.90;;;;;;5039102;28;20034;-73
2021/06/19 02:08:27;;;;;;;2.50;1.45;;;22.10;99.90;;;;;;5024015;28;20041;-74
2021/06/19 02:10:53;;;;;;;7.32;2.60;;;22.10;99.90;;;;;;5022359;28;20045;-74
2021/06/19 02:13:19;;;;;;;5.80;2.35;;;22.10;99.90;;;;;;5039779;28;20032;-73
2021/06/19 02:15:46;;;;;;;3.65;2.00;;;22.10;99.90;;;;;;5024129;28;20026;-75
2021/06/19 02:18:13;;;;;;;4.03;2.47;;;22.10;99.90;;;;;;5022778;28;20026;-73
2021/06/19 02:20:39;;;;;;;4.68;2.22;;;22.10;99.90;;;;;;5024146;28;20097;-73
2021/06/19 02:23:05;;;;;;;3.55;2.00;;;22.10;99.90;;;;;;5023425;28;20121;-73
2021/06/19 02:25:31;;;;;;;4.80;2.08;;;22.10;99.90;;;;;;5040782;28;20478;-73
2021/06/19 02:28:04;;;;;;;6.03;2.10;;;22.00;99.90;;;;;;5027341;28;20026;-73
2021/06/19 02:30:39;;;;;;;3.80;1.63;;;22.10;99.90;;;;;;5027682;28;20377;-74
2021/06/19 02:33:05;;;;;;;3.90;1.90;;;22.00;99.90;;;;;;5027632;28;20026;-73
2021/06/19 02:35:34;;;;;;;3.58;1.98;;;22.00;99.90;;;;;;5026761;28;20032;-75
2021/06/19 02:38:00;;;;;;;6.78;2.78;;;22.10;99.90;;;;;;5027271;28;20017;-75
2021/06/19 02:40:26;;;;;;;5.65;2.65;;;22.00;99.90;;;;;;5025852;28;20029;-73
2021/06/19 02:42:52;;;;;;;8.48;2.95;;;22.00;99.90;;;;;;5026615;28;20045;-74
2021/06/19 02:45:18;;;;;;;3.65;2.13;;;22.00;99.90;;;;;;5027680;28;20438;-74
2021/06/19 02:47:46;;;;;;;5.43;2.67;;;21.90;99.90;;;;;;5027823;28;20025;-74
2021/06/19 02:50:14;;;;;;;4.45;2.08;;;21.90;99.90;;;;;;5026562;28;20629;-73
2021/06/19 02:52:41;;;;;;;7.70;3.50;;;21.90;99.90;;;;;;5027795;28;20427;-73
2021/06/19 02:55:15;;;;;;;3.80;2.38;;;21.90;99.90;;;;;;5027418;28;20026;-74
2021/06/19 02:57:42;;;;;;;4.43;2.72;;;21.90;99.90;;;;;;5027120;28;20034;-73
2021/06/19 03:00:11;;;;;;;3.83;2.47;;;21.80;99.90;;;;;;5027290;28;20030;-72
2021/06/19 03:02:37;;;;;;;5.32;3.03;;;21.90;99.90;;;;;;5026514;28;20038;-73
2021/06/19 03:05:04;;;;;;;5.63;2.83;;;21.90;99.90;;;;;;5026568;28;20064;-73
2021/06/19 03:07:29;;;;;;;4.30;2.63;;;21.90;99.90;;;;;;5027165;28;20030;-73
2021/06/19 03:09:55;;;;;;;4.78;2.53;;;21.80;99.90;;;;;;5026424;28;20033;-73
2021/06/19 03:12:21;;;;;;;6.00;2.22;;;21.90;99.90;;;;;;5026961;28;20069;-73
2021/06/19 03:14:48;;;;;;;4.85;2.65;;;21.80;99.90;;;;;;5026986;28;20209;-75
2021/06/19 03:17:13;;;;;;;5.00;2.20;;;21.90;99.90;;;;;;5026648;28;20033;-74
2021/06/19 03:19:39;;;;;;;6.50;2.85;;;21.80;99.90;;;;;;5026328;28;20064;-73
2021/06/19 03:22:05;;;;;;;4.22;2.50;;;21.70;99.90;;;;;;5042126;28;20046;-73
2021/06/19 03:24:43;;;;;;;7.85;2.60;;;21.80;99.90;;;;;;5026551;28;20441;-73
2021/06/19 03:27:10;;;;;;;3.28;2.03;;;21.70;99.90;;;;;;5027170;28;20029;-73
2021/06/19 03:29:36;;;;;;;12.45;2.47;;;21.70;99.90;;;;;;5027074;28;20092;-72
2021/06/19 03:32:03;;;;;;;3.05;2.35;;;21.70;99.90;;;;;;5025825;28;20029;-72
2021/06/19 03:34:29;;;;;;;5.25;2.45;;;21.70;99.90;;;;;;5041292;28;20025;-74
2021/06/19 03:36:59;;;;;;;5.38;3.20;;;21.70;99.90;;;;;;5025473;28;20036;-72
2021/06/19 03:39:28;;;;;;;9.73;3.75;;;21.70;99.90;;;;;;5025464;28;20018;-73
2021/06/19 03:41:54;;;;;;;5.82;3.20;;;21.70;99.90;;;;;;5025223;28;20053;-73
2021/06/19 03:44:23;;;;;;;5.78;2.60;;;21.70;99.90;;;;;;5024672;28;20034;-74
2021/06/19 03:46:49;;;;;;;8.70;3.15;;;21.80;99.90;;;;;;5025997;28;20030;-73
2021/06/19 03:49:15;;;;;;;10.30;3.22;;;21.80;99.90;;;;;;5024751;28;20065;-75
2021/06/19 03:51:42;;;;;;;9.73;3.65;;;21.70;99.90;;;;;;5026037;28;20076;-74
2021/06/19 03:54:07;;;;;;;5.05;3.33;;;21.80;99.90;;;;;;5041455;28;20100;-76
2021/06/19 03:56:33;;;;;;;5.43;3.50;;;21.70;99.90;;;;;;5025777;28;20026;-75
2021/06/19 03:58:59;;;;;;;4.38;2.53;;;21.70;99.90;;;;;;5024346;28;20175;-72
2021/06/19 04:01:24;;;;;;;5.68;2.78;;;21.70;99.90;;;;;;5025499;28;20029;-73
2021/06/19 04:03:50;;;;;;;6.18;3.85;;;21.70;99.90;;;;;;5025856;28;20092;-75
2021/06/19 04:06:16;;;;;;;7.10;4.50;;;21.70;99.90;;;;;;5025856;28;20026;-74
2021/06/19 04:08:41;;;;;;;6.85;3.50;;;21.70;99.90;;;;;;5026342;28;20060;-74
2021/06/19 04:11:07;;;;;;;10.23;4.90;;;21.60;99.90;;;;;;5025943;28;20030;-73
2021/06/19 04:13:33;;;;;;;10.10;4.82;;;21.70;99.90;;;;;;5025867;28;20022;-74
2021/06/19 04:15:58;;;;;;;8.65;4.35;;;21.70;99.90;;;;;;5025767;28;20041;-75
2021/06/19 04:18:24;;;;;;;9.15;4.78;;;21.70;99.90;;;;;;5026012;28;20026;-75
2021/06/19 04:20:50;;;;;;;10.88;4.80;;;21.70;99.90;;;;;;5025318;28;20042;-74
2021/06/19 04:23:15;;;;;;;7.93;4.68;;;21.80;99.90;;;;;;5040823;28;20065;-74
2021/06/19 04:25:41;;;;;;;9.85;4.55;;;21.80;99.90;;;;;;5025520;28;20119;-73
2021/06/19 04:28:06;;;;;;;14.82;5.60;;;21.80;99.90;;;;;;5025258;28;20026;-72
2021/06/19 04:30:33;;;;;;;12.15;5.40;;;21.80;99.90;;;;;;5025412;28;20026;-73
2021/06/19 04:32:58;;;;;;;13.20;6.75;;;21.90;99.90;;;;;;5024257;28;20050;-73
2021/06/19 04:35:26;;;;;;;12.38;6.53;;;21.90;99.90;;;;;;5024540;28;20029;-76
2021/06/19 04:37:52;;;;;;;16.60;8.18;;;22.00;99.90;;;;;;5024912;28;20036;-75
2021/06/19 04:40:29;;;;;;;12.73;7.25;;;22.00;99.90;;;;;;5024030;28;20050;-73
2021/06/19 04:43:06;;;;;;;14.52;7.63;;;22.10;99.90;;;;;;5024929;28;20113;-71
2021/06/19 04:45:33;;;;;;;13.18;7.15;;;22.10;99.90;;;;;;5025412;28;20026;-72
2021/06/19 04:48:00;;;;;;;10.73;7.10;;;22.20;99.90;;;;;;5024352;28;20049;-71
2021/06/19 04:50:26;;;;;;;11.25;7.57;;;22.30;99.90;;;;;;5024744;28;20128;-72
2021/06/19 04:52:52;;;;;;;16.58;7.90;;;22.40;99.90;;;;;;5024680;28;20106;-74
2021/06/19 04:55:19;;;;;;;13.45;6.28;;;22.40;99.90;;;;;;5025193;28;20042;-72
2021/06/19 04:57:56;;;;;;;15.70;6.57;;;22.50;99.90;;;;;;5025141;28;20033;-73
2021/06/19 05:00:23;;;;;;;11.63;7.00;;;22.60;99.90;;;;;;5039572;28;20022;-72
2021/06/19 05:02:49;;;;;;;9.50;5.78;;;22.60;99.90;;;;;;5025409;28;20073;-72
2021/06/19 05:05:15;;;;;;;13.55;6.45;;;22.70;99.90;;;;;;5024875;28;20026;-72
2021/06/19 05:07:41;;;;;;;13.70;6.88;;;22.80;99.90;;;;;;5040296;28;20422;-73
2021/06/19 05:10:08;;;;;;;14.20;5.82;;;22.90;99.90;;;;;;5024533;28;20072;-73
2021/06/19 05:12:35;;;;;;;9.73;5.70;;;22.90;99.90;;;;;;5025078;28;20030;-70
2021/06/19 05:15:03;;;;;;;8.18;5.00;;;23.00;99.90;;;;;;5024782;28;20522;-72
2021/06/19 05:17:30;;;;;;;9.00;4.72;;;23.10;99.90;;;;;;5024352;28;20433;-72
2021/06/19 05:19:56;;;;;;;10.82;5.47;;;23.10;99.90;;;;;;5024074;28;20267;-73
2021/06/19 05:22:23;;;;;;;7.22;4.93;;;23.20;99.90;;;;;;5024171;28;20038;-73
2021/06/19 05:24:48;;;;;;;10.18;4.90;;;23.20;99.90;;;;;;5022818;28;20026;-74
2021/06/19 05:27:14;;;;;;;14.65;4.93;;;23.30;99.90;;;;;;5025006;28;20099;-75
2021/06/19 05:29:39;;;;;;;6.90;4.30;;;23.30;99.90;;;;;;5024421;28;20414;-72
2021/06/19 05:32:06;;;;;;;7.13;4.38;;;23.40;99.90;;;;;;5024209;28;20025;-71
2021/06/19 05:34:32;;;;;;;8.02;4.50;;;23.40;99.90;;;;;;5024214;28;20029;-74
2021/06/19 05:36:58;;;;;;;8.35;4.25;;;23.50;99.90;;;;;;5039184;28;20022;-73
2021/06/19 05:39:23;;;;;;;8.82;4.93;;;23.60;99.90;;;;;;5023479;28;20022;-74
2021/06/19 05:41:49;;;;;;;8.10;4.60;;;23.60;99.90;;;;;;5024237;28;20116;-72
2021/06/19 05:44:15;;;;;;;4.38;3.42;;;23.70;99.90;;;;;;5024284;28;20045;-76
2021/06/19 05:46:40;;;;;;;7.03;3.67;;;23.70;99.90;;;;;;5024352;28;20022;-72
2021/06/19 05:49:06;;;;;;;6.10;2.72;;;23.80;99.90;;;;;;5024106;28;20044;-70
2021/06/19 05:51:32;;;;;;;4.47;2.92;;;23.80;99.90;;;;;;5024252;28;20029;-74
2021/06/19 05:53:58;;;;;;;8.35;2.65;;;23.90;99.90;;;;;;5026470;28;20030;-76
2021/06/19 05:56:24;;;;;;;5.93;2.55;;;23.90;99.90;;;;;;5062930;28;20465;-72
2021/06/19 05:58:49;;;;;;;5.47;2.63;;;24.00;99.90;;;;;;5058739;28;20056;-73
2021/06/19 06:01:15;;;;;;;4.25;2.58;;;24.00;99.90;;;;;;5065056;28;20025;-74
2021/06/19 06:03:41;;;;;;;6.80;3.28;;;24.00;99.90;;;;;;5068479;28;20092;-74
2021/06/19 06:06:06;;;;;;;6.22;3.13;;;24.00;99.90;;;;;;5059427;28;20025;-72
2021/06/19 06:08:32;;;;;;;6.97;3.00;;;24.10;99.90;;;;;;5048028;28;20028;-72
2021/06/19 06:10:58;;;;;;;11.10;3.00;;;24.00;99.90;;;;;;5047787;28;20022;-75
2021/06/19 06:13:23;;;;;;;4.22;2.53;;;24.10;99.90;;;;;;5047259;28;20083;-71
2021/06/19 06:15:49;;;;;;;2.83;2.10;;;24.10;99.90;;;;;;5047828;28;20332;-73
2021/06/19 06:18:14;;;;;;;2.67;2.00;;;24.10;99.90;;;;;;5047106;28;20045;-73
2021/06/19 06:20:40;;;;;;;4.28;2.75;;;24.20;99.90;;;;;;5057025;28;20020;-73
2021/06/19 06:23:06;;;;;;;3.25;1.90;;;24.20;99.90;;;;;;5054241;28;20036;-73
2021/06/19 06:25:31;;;;;;;10.95;2.42;;;24.20;99.90;;;;;;5056475;28;20056;-71
2021/06/19 06:27:57;;;;;;;3.08;2.08;;;24.30;99.90;;;;;;5059590;28;20027;-79
2021/06/19 06:30:23;;;;;;;2.85;1.80;;;24.20;99.90;;;;;;5049893;28;20025;-74
2021/06/19 06:32:49;;;;;;;4.60;2.13;;;24.30;99.90;;;;;;5053779;28;20030;-77
2021/06/19 06:35:15;;;;;;;4.10;2.00;;;24.30;99.90;;;;;;5060461;28;20066;-77
2021/06/19 06:37:41;;;;;;;4.18;2.50;;;24.30;99.90;;;;;;5046706;28;20056;-72
2021/06/19 06:40:10;;;;;;;4.00;2.25;;;24.40;99.90;;;;;;5062340;28;20587;-76
2021/06/19 06:42:40;;;;;;;3.35;2.38;;;24.40;99.90;;;;;;5062225;28;20041;-74
2021/06/19 06:45:07;;;;;;;4.20;2.20;;;24.30;99.90;;;;;;5046977;28;20119;-72
2021/06/19 06:47:33;;;;;;;2.55;1.88;;;24.40;99.90;;;;;;5046843;28;20044;-73
2021/06/19 06:49:58;;;;;;;2.65;1.52;;;24.40;99.90;;;;;;5046888;28;20053;-71
2021/06/19 06:52:24;;;;;;;3.13;1.95;;;24.40;99.90;;;;;;5051111;28;20025;-71
2021/06/19 06:54:50;;;;;;;8.07;1.92;;;24.30;99.90;;;;;;5061304;28;20033;-75
2021/06/19 06:57:16;;;;;;;2.00;1.50;;;24.40;99.90;;;;;;5047084;28;20109;-73
2021/06/19 06:59:43;;;;;;;3.25;1.73;;;24.40;99.90;;;;;;5062939;28;20380;-71
2021/06/19 07:02:08;;;;;;;3.15;1.73;;;24.40;99.90;;;;;;5062098;28;20045;-75
2021/06/19 07:04:34;;;;;;;6.57;2.22;;;24.40;99.90;;;;;;5046651;28;20045;-78
2021/06/19 07:07:00;;;;;;;4.80;1.67;;;24.30;99.90;;;;;;5046512;28;20028;-72
2021/06/19 07:09:25;;;;;;;6.80;1.80;;;24.40;99.90;;;;;;5046301;28;20052;-75
2021/06/19 07:11:51;;;;;;;2.33;1.50;;;24.30;99.90;;;;;;5054036;28;20037;-73
2021/06/19 07:14:16;;;;;;;2.20;1.60;;;24.40;99.90;;;;;;5050904;28;20041;-76
2021/06/19 07:16:42;;;;;;;2.40;1.80;;;24.40;99.90;;;;;;5063721;28;20036;-73
2021/06/19 07:19:08;;;;;;;4.97;1.70;;;24.50;99.90;;;;;;5055445;28;20033;-74
2021/06/19 07:21:33;;;;;;;4.40;1.98;;;24.50;99.90;;;;;;5046602;28;20041;-75
2021/06/19 07:23:59;;;;;;;3.00;1.80;;;24.60;99.90;;;;;;5046650;28;20037;-72
2021/06/19 07:26:25;;;;;;;2.85;2.00;;;24.60;99.90;;;;;;5046770;28;20033;-76
2021/06/19 07:28:50;;;;;;;4.82;2.10;;;24.70;99.90;;;;;;5046036;28;20033;-73
2021/06/19 07:31:16;;;;;;;5.28;1.73;;;24.80;99.90;;;;;;5052783;28;20075;-72
2021/06/19 07:33:42;;;;;;;4.50;2.30;;;24.80;99.90;;;;;;5053751;28;20045;-74
2021/06/19 07:36:09;;;;;;;2.20;1.55;;;25.00;99.90;;;;;;5062855;28;20028;-74
2021/06/19 07:38:34;;;;;;;3.45;1.65;;;25.00;99.90;;;;;;5062590;28;20025;-75
2021/06/19 07:41:00;;;;;;;2.92;1.90;;;25.20;99.90;;;;;;5053536;28;20460;-74
2021/06/19 07:43:26;;;;;;;2.97;1.63;;;25.10;99.90;;;;;;5048833;28;20105;-75
2021/06/19 07:45:53;;;;;;;2.28;1.33;;;25.10;99.90;;;;;;5064580;28;20029;-73
2021/06/19 07:48:19;;;;;;;2.20;1.40;;;24.90;99.90;;;;;;5066434;28;20056;-73
2021/06/19 07:50:51;;;;;;;6.25;1.85;;;24.80;99.90;;;;;;5062342;28;20079;-75
2021/06/19 07:53:17;;;;;;;3.42;1.80;;;24.70;99.90;;;;;;5065166;28;20021;-68
2021/06/19 07:55:49;;;;;;;2.70;1.33;;;24.70;99.90;;;;;;5049110;28;20404;-72
2021/06/19 07:58:15;;;;;;;3.88;2.03;;;24.80;99.90;;;;;;5044767;28;20064;-75
2021/06/19 08:00:42;;;;;;;2.90;1.45;;;24.90;99.90;;;;;;5044144;28;20036;-76
2021/06/19 08:03:08;;;;;;;2.60;1.52;;;25.10;99.90;;;;;;5043949;28;20026;-76
2021/06/19 08:05:33;;;;;;;1.75;1.10;;;25.20;99.90;;;;;;5045440;28;20018;-73
2021/06/19 08:07:59;;;;;;;2.03;1.40;;;25.30;99.90;;;;;;5044926;28;20026;-73
2021/06/19 08:10:26;;;;;;;2.63;1.27;;;25.30;99.90;;;;;;5045934;28;20073;-74
2021/06/19 08:12:52;;;;;;;2.10;1.40;;;25.30;99.90;;;;;;5045384;28;20036;-76
2021/06/19 08:15:18;;;;;;;2.13;1.60;;;25.40;99.90;;;;;;5046184;28;20030;-72
2021/06/19 08:17:44;;;;;;;3.55;1.60;;;25.40;99.90;;;;;;5045044;28;20026;-75
2021/06/19 08:20:11;;;;;;;3.78;1.35;;;25.50;99.90;;;;;;5046548;28;20112;-74
2021/06/19 08:22:36;;;;;;;3.50;1.58;;;25.60;99.90;;;;;;5063432;28;20033;-72
2021/06/19 08:25:03;;;;;;;1.63;1.25;;;25.60;99.90;;;;;;5060136;28;20032;-74
2021/06/19 08:27:29;;;;;;;2.10;1.63;;;25.60;99.90;;;;;;5045396;28;20037;-76
2021/06/19 08:30:02;;;;;;;2.30;1.38;;;25.60;99.90;;;;;;5049056;28;20010;-75
2021/06/19 08:32:27;;;;;;;2.13;1.52;;;25.70;99.90;;;;;;5063309;28;20028;-73
2021/06/19 08:34:53;;;;;;;2.38;1.60;;;25.70;99.90;;;;;;5064607;28;20028;-72
2021/06/19 08:37:19;;;;;;;1.90;1.33;;;25.60;99.90;;;;;;5065375;28;20389;-74
2021/06/19 08:39:45;;;;;;;2.10;1.42;;;25.60;99.90;;;;;;5065349;28;20035;-76
2021/06/19 08:42:10;;;;;;;3.20;1.77;;;25.50;99.90;;;;;;5065272;28;20041;-75
2021/06/19 08:44:36;;;;;;;3.13;1.05;;;25.40;99.90;;;;;;5065230;28;20401;-75
2021/06/19 08:47:03;;;;;;;1.08;0.90;;;25.40;99.90;;;;;;5064521;28;20425;-73
2021/06/19 08:49:29;;;;;;;3.33;1.52;;;25.40;99.90;;;;;;5062369;28;20041;-73
2021/06/19 08:51:57;;;;;;;3.13;1.63;;;25.40;99.90;;;;;;5079105;28;20040;-74
2021/06/19 08:54:24;;;;;;;5.18;1.88;;;25.50;99.90;;;;;;5063951;28;20029;-75
2021/06/19 08:56:50;;;;;;;2.72;1.73;;;25.60;99.90;;;;;;5064733;28;20059;-72
2021/06/19 08:59:17;;;;;;;3.85;1.55;;;25.70;99.90;;;;;;5063927;28;20029;-71
2021/06/19 09:01:43;;;;;;;1.45;0.95;;;25.70;99.90;;;;;;5057051;28;20075;-76
2021/06/19 09:04:11;;;;;;;2.35;1.52;;;25.80;99.90;;;;;;5050954;28;20083;-72
2021/06/19 09:06:41;;;;;;;4.85;1.40;;;25.90;99.90;;;;;;5042560;28;20021;-74
2021/06/19 09:09:10;;;;;;;4.32;1.80;;;26.00;99.90;;;;;;5044169;28;20495;-76
2021/06/19 09:11:39;;;;;;;1.60;1.50;;;26.00;99.90;;;;;;5044287;28;20071;-74
2021/06/19 09:14:07;;;;;;;1.98;1.30;;;26.10;99.90;;;;;;5059927;28;20030;-73
2021/06/19 09:16:34;;;;;;;1.98;1.23;;;26.20;99.90;;;;;;5052555;28;20025;-70
2021/06/19 09:19:00;;;;;;;2.38;1.50;;;26.20;99.90;;;;;;5044864;28;20152;-71
2021/06/19 09:21:33;;;;;;;3.95;1.40;;;26.30;99.90;;;;;;5044035;28;20037;-70
2021/06/19 09:24:00;;;;;;;3.15;1.48;;;26.40;99.90;;;;;;5058797;28;20474;-73
2021/06/19 09:26:28;;;;;;;2.50;1.38;;;26.40;99.90;;;;;;5046413;28;20093;-72
2021/06/19 09:28:56;;;;;;;2.75;1.42;;;26.50;99.90;;;;;;5056072;28;20474;-74
2021/06/19 09:31:43;;;;;;;1.45;1.08;;;26.60;99.90;;;;;;5052462;28;20040;-72
2021/06/19 09:34:18;;;;;;;1.23;1.00;;;26.60;99.90;;;;;;5063836;28;20072;-73
2021/06/19 09:36:48;;;;;;;1.65;1.20;;;26.70;99.90;;;;;;5064585;28;20043;-73
2021/06/19 09:39:17;;;;;;;1.88;1.02;;;26.80;99.90;;;;;;5063532;28;20033;-76
2021/06/19 09:41:54;;;;;;;2.10;1.23;;;26.80;99.90;;;;;;5061554;28;20180;-74
2021/06/19 09:44:55;;;;;;;3.50;1.50;;;26.90;99.90;;;;;;5049050;28;20038;-76
2021/06/19 09:47:21;;;;;;;1.30;1.10;;;27.00;99.90;;;;;;5019532;28;20107;-75
2021/06/19 09:49:49;;;;;;;1.00;0.80;;;27.10;99.90;;;;;;5016213;28;20046;-78
2021/06/19 09:52:28;;;;;;;2.58;1.15;;;27.20;99.90;;;;;;4999757;28;20831;-73
2021/06/19 09:54:58;;;;;;;1.90;1.13;;;27.10;99.90;;;;;;4982215;28;20050;-74
2021/06/19 09:57:45;;;;;;;2.25;1.48;;;27.00;99.90;;;;;;4998830;28;20103;-73
2021/06/19 10:00:13;;;;;;;1.77;1.13;;;27.10;99.90;;;;;;4982336;28;20066;-77
2021/06/19 10:02:39;;;;;;;2.70;1.05;;;27.20;99.90;;;;;;4982244;28;20058;-72
2021/06/19 10:05:06;;;;;;;1.77;1.23;;;27.40;99.90;;;;;;4983985;28;20062;-73
2021/06/19 10:07:33;;;;;;;1.33;0.88;;;27.60;99.90;;;;;;5007386;28;20026;-75
2021/06/19 10:09:59;;;;;;;2.35;1.10;;;27.70;99.90;;;;;;5012216;28;20022;-75
2021/06/19 10:12:31;;;;;;;7.97;1.40;;;27.90;99.90;;;;;;5014012;28;20026;-75
2021/06/19 10:15:02;;;;;;;4.88;1.92;;;28.00;99.90;;;;;;5012925;28;20027;-73
2021/06/19 10:17:32;;;;;;;1.85;1.30;;;28.00;99.90;;;;;;5013317;28;20402;-70
2021/06/19 10:20:02;;;;;;;1.95;1.30;;;28.00;99.90;;;;;;5013562;28;20034;-74
2021/06/19 10:22:29;;;;;;;0.73;0.68;;;28.00;99.90;;;;;;5011954;28;20034;-72
2021/06/19 10:24:57;;;;;;;1.80;1.33;;;27.90;99.90;;;;;;5002276;28;20130;-73
2021/06/19 10:27:24;;;;;;;9.60;1.60;;;28.00;99.90;;;;;;5003214;28;20026;-74
2021/06/19 10:29:51;;;;;;;1.65;1.00;;;28.10;99.90;;;;;;5008697;28;20026;-74
2021/06/19 10:32:41;;;;;;;2.50;1.40;;;28.20;99.90;;;;;;5011291;28;20072;-74
2021/06/19 10:35:07;;;;;;;1.35;1.00;;;28.30;99.90;;;;;;5005355;28;20060;-74
2021/06/19 10:37:32;;;;;;;1.50;1.33;;;28.50;99.90;;;;;;5010738;28;20533;-74
2021/06/19 10:40:25;;;;;;;1.95;1.20;;;28.60;99.90;;;;;;5022349;28;20078;-73
2021/06/19 10:42:53;;;;;;;2.35;0.98;;;28.80;99.90;;;;;;5022709;28;20695;-73
2021/06/19 10:45:22;;;;;;;1.17;1.02;;;28.90;99.90;;;;;;5021314;28;20091;-74
2021/06/19 10:48:06;;;;;;;1.23;1.02;;;29.00;99.90;;;;;;5024623;28;20032;-75
2021/06/19 10:50:32;;;;;;;;;;;29.10;99.90;;;;;;5056352;28;87324;-75
2021/06/19 10:53:11;;;;;;;1.48;0.90;;;29.10;99.90;;;;;;5053881;28;19980;-72
2021/06/19 10:55:44;;;;;;;1.33;0.90;;;29.30;99.90;;;;;;5056323;28;20117;-77
2021/06/19 10:58:27;;;;;;;0.90;0.73;;;29.50;99.90;;;;;;5057210;28;20064;-74
2021/06/19 11:00:54;;;;;;;4.28;1.20;;;29.60;99.90;;;;;;5049732;28;20052;-74
2021/06/19 11:03:46;;;;;;;0.93;0.60;;;29.60;99.90;;;;;;5045508;28;20029;-74
2021/06/19 11:06:27;;;;;;;2.35;1.50;;;29.70;99.90;;;;;;5047166;28;20036;-77
2021/06/19 11:09:08;;;;;;;1.77;1.20;;;29.80;99.90;;;;;;5050283;28;20041;-75
2021/06/19 11:11:54;;;;;;;2.55;1.25;;;29.90;99.90;;;;;;5054131;28;20024;-77
2021/06/19 11:14:47;;;;;;;2.03;1.45;;;29.70;99.90;;;;;;5065670;28;20081;-76
2021/06/19 11:17:22;;;;;;;1.25;0.90;;;29.80;99.90;;;;;;5065473;28;20041;-72
2021/06/19 11:19:50;;;;;;;2.35;1.42;;;29.80;99.90;;;;;;5066040;28;20420;-75
2021/06/19 11:22:38;;;;;;;2.25;1.10;;;29.80;99.90;;;;;;5066287;28;20033;-74
2021/06/19 11:25:20;;;;;;;7.38;1.52;;;29.90;99.90;;;;;;5052775;28;20052;-73
2021/06/19 11:27:51;;;;;;;1.00;0.95;;;30.20;99.90;;;;;;5049428;28;20367;-75
2021/06/19 11:30:35;;;;;;;4.85;1.10;;;30.50;99.90;;;;;;5061304;28;20033;-74
2021/06/19 11:33:25;;;;;;;2.97;1.60;;;30.90;99.90;;;;;;5061358;28;20029;-74
2021/06/19 11:35:58;;;;;;;3.08;1.20;;;31.20;99.90;;;;;;5061319;28;20044;-73
2021/06/19 11:38:24;;;;;;;3.00;1.40;;;31.40;99.90;;;;;;5044877;28;20030;-77
2021/06/19 11:40:50;;;;;;;3.28;1.08;;;31.50;99.90;;;;;;5043768;28;20029;-77
2021/06/19 11:43:31;;;;;;;1.67;1.17;;;31.60;99.90;;;;;;5044375;28;20033;-78
2021/06/19 11:45:59;;;;;;;2.55;1.25;;;31.50;99.90;;;;;;5044366;28;20030;-81
2021/06/19 11:48:25;;;;;;;16.40;1.35;;;31.60;99.90;;;;;;5041053;28;20555;-76
2021/06/19 11:50:51;;;;;;;1.40;1.02;;;31.70;99.90;;;;;;5043483;28;20538;-75
2021/06/19 11:53:32;;;;;;;2.42;1.65;;;31.90;99.90;;;;;;5044506;28;20041;-73
2021/06/19 11:56:21;;;;;;;1.10;1.00;;;32.00;99.90;;;;;;5045470;28;20077;-72
2021/06/19 11:58:56;;;;;;;2.67;1.42;;;32.20;99.90;;;;;;5044178;28;20156;-74
2021/06/19 12:01:31;;;;;;;4.05;1.23;;;32.50;99.90;;;;;;5045461;28;20049;-76
2021/06/19 12:04:03;;;;;;;1.98;1.20;;;32.50;99.90;;;;;;5045704;28;20042;-73
2021/06/19 12:06:37;;;;;;;1.98;1.30;;;32.60;99.90;;;;;;5053790;28;20029;-75
2021/06/19 12:09:04;;;;;;;1.65;1.40;;;32.50;99.90;;;;;;5063948;28;20036;-72
2021/06/19 12:11:34;;;;;;;1.52;1.13;;;32.50;99.90;;;;;;5064614;28;20051;-77
2021/06/19 12:14:00;;;;;;;1.10;1.00;;;32.40;99.90;;;;;;5064987;28;20386;-72
2021/06/19 12:16:30;;;;;;;3.47;1.30;;;31.90;99.90;;;;;;5065478;28;20092;-74
2021/06/19 12:19:00;;;;;;;1.35;1.20;;;31.60;99.90;;;;;;5065459;28;20104;-72
2021/06/19 12:21:32;;;;;;;1.67;1.00;;;31.80;99.90;;;;;;5065543;28;20143;-75
2021/06/19 12:23:58;;;;;;;1.33;1.02;;;31.90;99.90;;;;;;5064328;28;20036;-72
2021/06/19 12:26:24;;;;;;;1.30;1.08;;;32.10;99.90;;;;;;5061647;28;20039;-72
2021/06/19 12:28:51;;;;;;;1.90;1.27;;;32.30;99.90;;;;;;5048687;28;20065;-71
2021/06/19 12:31:26;;;;;;;1.60;1.00;;;32.40;99.40;;;;;;5029064;28;20451;-72
2021/06/19 12:34:00;;;;;;;2.58;1.10;;;32.60;99.90;;;;;;5065349;28;20040;-72
2021/06/19 12:36:27;;;;;;;1.77;1.15;;;32.70;99.90;;;;;;5065175;28;20063;-71
2021/06/19 12:38:53;;;;;;;2.75;1.50;;;32.70;99.90;;;;;;5064830;28;20025;-73
2021/06/19 12:41:20;;;;;;;2.97;1.60;;;32.30;99.90;;;;;;5064273;28;20048;-72
2021/06/19 12:43:54;;;;;;;1.77;1.15;;;32.30;99.10;;;;;;5065273;28;20033;-72
2021/06/19 12:46:20;;;;;;;;;;;32.40;99.90;;;;;;5065355;28;20534;-74
2021/06/19 12:48:47;;;;;;;1.23;0.90;;;32.40;98.90;;;;;;5063767;28;19904;-74
2021/06/19 12:51:29;;;;;;;1.60;1.05;;;32.60;99.90;;;;;;5064552;28;20120;-73